createdAt,value
2022-11-27T00:01:30.062Z,29.28
2022-11-27T00:04:00.036Z,29.29
2022-11-27T00:06:30.909Z,29.32
2022-11-27T00:09:01.686Z,29.35
2022-11-27T00:11:32.647Z,29.31
2022-11-27T00:14:03.011Z,29.25
2022-11-27T00:16:33.005Z,29.28
2022-11-27T00:19:03.961Z,29.23
2022-11-27T00:21:34.916Z,29.24
2022-11-27T00:24:06.143Z,29.26
2022-11-27T00:26:38.038Z,29.22
2022-11-27T00:29:09.726Z,29.23
2022-11-27T00:31:39.937Z,29.07
2022-11-27T00:34:12.208Z,29.13
2022-11-27T00:36:46.554Z,29.16
2022-11-27T00:39:17.959Z,29.05
2022-11-27T00:41:47.857Z,29.01
2022-11-27T00:44:17.716Z,29.05
2022-11-27T00:46:47.393Z,29.13
2022-11-27T00:49:18.515Z,29.13
2022-11-27T00:51:48.307Z,29.20
2022-11-27T00:54:19.135Z,29.20
2022-11-27T00:56:50.512Z,29.17
2022-11-27T00:59:20.118Z,29.19
2022-11-27T01:01:50.961Z,29.12
2022-11-27T01:04:20.972Z,29.20
2022-11-27T01:06:50.912Z,29.22
2022-11-27T01:09:20.617Z,29.27
2022-11-27T01:11:50.302Z,29.27
2022-11-27T01:14:21.340Z,29.28
2022-11-27T01:16:51.240Z,29.29
2022-11-27T01:19:24.482Z,29.24
2022-11-27T01:21:54.419Z,29.18
2022-11-27T01:24:24.600Z,29.24
2022-11-27T01:26:54.729Z,29.16
2022-11-27T01:29:24.475Z,29.16
2022-11-27T01:31:54.261Z,29.01
2022-11-27T01:34:25.970Z,29.09
2022-11-27T01:36:56.123Z,29.11
2022-11-27T01:39:28.154Z,29.13
2022-11-27T01:41:58.000Z,29.15
2022-11-27T01:44:27.649Z,29.05
2022-11-27T01:46:57.485Z,28.98
2022-11-27T01:49:28.750Z,29.01
2022-11-27T01:52:03.909Z,29.09
2022-11-27T01:54:40.131Z,29.17
2022-11-27T01:57:18.953Z,29.19
2022-11-27T01:59:50.685Z,29.01
2022-11-27T02:02:20.522Z,29.11
2022-11-27T02:04:50.755Z,29.17
2022-11-27T02:07:20.654Z,29.21
2022-11-27T02:09:50.432Z,29.19
2022-11-27T02:12:27.340Z,29.27
2022-11-27T02:15:03.362Z,29.37
2022-11-27T02:17:49.876Z,29.34
2022-11-27T02:20:28.952Z,29.45
2022-11-27T02:23:17.564Z,29.41
2022-11-27T02:25:53.560Z,29.52
2022-11-27T02:28:23.632Z,29.56
2022-11-27T02:30:58.403Z,29.34
2022-11-27T02:33:29.268Z,29.28
2022-11-27T02:36:06.886Z,29.40
2022-11-27T02:38:41.238Z,29.63
2022-11-27T02:41:18.662Z,29.84
2022-11-27T02:43:51.497Z,29.92
2022-11-27T02:46:23.007Z,29.83
2022-11-27T02:48:55.633Z,29.84
2022-11-27T02:51:30.367Z,29.76
2022-11-27T02:54:02.976Z,29.84
2022-11-27T02:56:33.972Z,29.90
2022-11-27T02:59:06.701Z,29.84
2022-11-27T03:01:39.604Z,29.84
2022-11-27T03:04:12.333Z,29.81
2022-11-27T03:06:46.364Z,29.91
2022-11-27T03:09:20.243Z,29.86
2022-11-27T03:11:50.875Z,29.80
2022-11-27T03:14:22.739Z,29.80
2022-11-27T03:17:01.585Z,29.80
2022-11-27T03:19:50.260Z,29.84
2022-11-27T03:22:20.529Z,29.77
2022-11-27T03:24:52.124Z,29.85
2022-11-27T03:27:25.513Z,29.90
2022-11-27T03:30:00.608Z,29.94
2022-11-27T03:32:31.700Z,29.93
2022-11-27T03:35:02.037Z,30.04
2022-11-27T03:37:32.131Z,30.02
2022-11-27T03:40:02.098Z,30.04
2022-11-27T03:42:36.582Z,30.17
2022-11-27T03:45:27.342Z,30.16
2022-11-27T03:48:06.487Z,30.08
2022-11-27T03:50:54.917Z,30.07
2022-11-27T03:53:30.332Z,30.10
2022-11-27T03:56:09.636Z,30.15
2022-11-27T03:58:46.108Z,30.20
2022-11-27T04:01:18.946Z,30.23
2022-11-27T04:03:49.225Z,30.26
2022-11-27T04:06:19.528Z,30.29
2022-11-27T04:08:49.755Z,30.32
2022-11-27T04:11:19.680Z,30.29
2022-11-27T04:13:49.462Z,30.36
2022-11-27T04:16:19.479Z,30.28
2022-11-27T04:18:49.274Z,30.28
2022-11-27T04:21:19.363Z,30.32
2022-11-27T04:23:49.475Z,30.19
2022-11-27T04:26:19.170Z,30.21
2022-11-27T04:28:49.638Z,30.12
2022-11-27T04:31:19.652Z,30.16
2022-11-27T04:33:49.414Z,30.20
2022-11-27T04:36:20.998Z,30.29
2022-11-27T04:38:50.941Z,30.37
2022-11-27T04:41:20.677Z,30.41
2022-11-27T04:43:50.316Z,30.44
2022-11-27T04:46:20.228Z,30.36
2022-11-27T04:48:49.983Z,30.35
2022-11-27T04:51:19.937Z,30.44
2022-11-27T04:53:49.829Z,30.47
2022-11-27T04:56:19.804Z,30.40
2022-11-27T04:58:49.769Z,30.51
2022-11-27T05:01:19.483Z,30.50
2022-11-27T05:03:50.618Z,30.49
2022-11-27T05:06:20.393Z,30.57
2022-11-27T05:08:50.066Z,30.56
2022-11-27T05:11:20.407Z,30.51
2022-11-27T05:13:50.310Z,30.46
2022-11-27T05:16:20.048Z,30.53
2022-11-27T05:18:49.968Z,30.47
2022-11-27T05:21:19.700Z,30.48
2022-11-27T05:23:49.389Z,30.50
2022-11-27T05:26:19.350Z,30.60
2022-11-27T05:28:48.967Z,30.61
2022-11-27T05:31:18.920Z,30.59
2022-11-27T05:33:48.769Z,30.58
2022-11-27T05:36:18.548Z,30.59
2022-11-27T05:38:48.223Z,30.57
2022-11-27T05:41:18.235Z,30.65
2022-11-27T05:43:48.111Z,30.65
2022-11-27T05:46:19.482Z,30.62
2022-11-27T05:48:49.410Z,30.62
2022-11-27T05:51:19.427Z,30.71
2022-11-27T05:53:49.406Z,30.63
2022-11-27T05:56:20.657Z,30.64
2022-11-27T08:53:48.251Z,29.57
2022-11-27T08:56:20.475Z,29.61
2022-11-27T08:58:51.188Z,29.60
2022-11-27T09:01:31.517Z,29.71
2022-11-27T09:04:02.230Z,29.81
2022-11-27T09:06:33.593Z,29.92
2022-11-27T09:09:04.952Z,30.02
2022-11-27T09:11:36.837Z,30.01
2022-11-27T09:14:07.256Z,30.01
2022-11-27T09:16:37.394Z,30.03
2022-11-27T09:19:07.084Z,30.02
2022-11-27T09:21:36.820Z,29.99
2022-11-27T09:24:06.581Z,30.00
2022-11-27T09:26:37.285Z,29.99
2022-11-27T09:29:07.413Z,30.01
2022-11-27T09:31:37.144Z,30.02
2022-11-27T09:34:07.822Z,29.95
2022-11-27T09:36:37.653Z,29.90
2022-11-27T09:39:07.412Z,29.89
2022-11-27T09:41:41.854Z,29.96
2022-11-27T09:44:20.892Z,30.02
2022-11-27T09:46:51.724Z,30.04
2022-11-27T09:49:27.798Z,30.11
2022-11-27T09:52:06.689Z,30.02
2022-11-27T09:54:40.523Z,30.02
2022-11-27T09:57:16.867Z,30.02
2022-11-27T09:59:53.055Z,29.95
2022-11-27T10:02:33.386Z,29.96
2022-11-27T10:05:13.795Z,29.93
2022-11-27T10:07:44.265Z,29.93
2022-11-27T10:10:37.869Z,29.98
2022-11-27T10:13:17.478Z,29.99
2022-11-27T10:15:56.463Z,29.93
2022-11-27T10:18:40.262Z,29.90
2022-11-27T10:21:36.393Z,29.91
2022-11-27T10:24:24.544Z,30.02
2022-11-27T10:26:57.565Z,30.11
2022-11-27T10:29:48.812Z,30.18
2022-11-27T10:32:53.689Z,30.17
2022-11-27T10:35:16.078Z,30.23
2022-11-27T10:37:46.091Z,30.13
2022-11-27T10:40:16.280Z,30.20
2022-11-27T10:42:46.398Z,30.21
2022-11-27T10:45:37.028Z,30.21
2022-11-27T10:48:07.442Z,30.25
2022-11-27T10:50:37.432Z,30.25
2022-11-27T10:53:27.306Z,30.18
2022-11-27T10:56:02.372Z,30.29
2022-11-27T10:58:39.359Z,30.25
2022-11-27T11:01:11.088Z,30.30
2022-11-27T11:03:41.030Z,30.25
2022-11-27T11:06:21.522Z,30.30
2022-11-27T11:09:04.168Z,30.24
2022-11-27T11:11:34.175Z,30.20
2022-11-27T11:14:03.914Z,30.15
2022-11-27T11:16:35.847Z,30.22
2022-11-27T11:19:08.430Z,30.17
2022-11-27T11:21:42.765Z,30.24
2022-11-27T11:24:15.801Z,30.33
2022-11-27T11:27:18.208Z,30.34
2022-11-27T11:29:51.069Z,30.32
2022-11-27T11:32:24.149Z,30.41
2022-11-27T11:35:00.861Z,30.35
2022-11-27T11:37:31.308Z,30.36
2022-11-27T11:40:14.934Z,30.30
2022-11-27T11:43:06.691Z,30.30
2022-11-27T11:45:37.427Z,30.25
2022-11-27T11:48:24.666Z,30.26
2022-11-27T11:51:02.812Z,30.27
2022-11-27T11:53:40.827Z,30.33
2022-11-27T11:56:29.468Z,30.27
2022-11-27T11:59:15.775Z,30.28
2022-11-27T12:01:46.141Z,30.17
2022-11-27T12:04:16.153Z,30.19
2022-11-27T12:06:53.668Z,30.19
2022-11-27T12:09:48.837Z,30.21
2022-11-27T12:12:28.105Z,30.21
2022-11-27T12:14:58.146Z,30.29
2022-11-27T12:17:35.105Z,30.26
2022-11-27T12:20:16.436Z,30.21
2022-11-27T12:22:55.299Z,30.16
2022-11-27T12:25:28.281Z,30.15
2022-11-27T12:28:08.345Z,30.17
2022-11-27T12:30:58.353Z,30.12
2022-11-27T12:33:46.670Z,30.11
2022-11-27T12:36:51.267Z,30.08
2022-11-27T12:39:39.811Z,30.10
2022-11-27T12:42:09.679Z,30.10
2022-11-27T12:44:47.379Z,30.15
2022-11-27T12:47:21.620Z,30.21
2022-11-27T12:49:55.058Z,30.15
2022-11-27T12:52:34.816Z,30.17
2022-11-27T12:55:08.960Z,30.19
2022-11-27T12:57:42.980Z,30.19
2022-11-27T13:00:26.801Z,30.18
2022-11-27T13:03:09.858Z,30.16
2022-11-27T13:05:43.439Z,30.18
2022-11-27T13:08:21.129Z,30.19
2022-11-27T13:10:57.023Z,30.14
2022-11-27T13:13:32.713Z,30.11
2022-11-27T13:16:09.074Z,30.08
2022-11-27T13:18:45.748Z,30.11
2022-11-27T13:21:25.198Z,30.07
2022-11-27T13:23:55.485Z,30.05
2022-11-27T13:26:29.790Z,30.00
2022-11-27T13:29:04.434Z,30.05
2022-11-27T13:31:38.308Z,29.97
2022-11-27T13:34:15.017Z,29.97
2022-11-27T13:36:47.215Z,29.99
2022-11-27T13:39:43.474Z,30.10
2022-11-27T13:42:19.126Z,30.07
2022-11-27T13:44:56.640Z,30.05
2022-11-27T13:47:27.927Z,30.07
2022-11-27T13:50:05.699Z,30.01
2022-11-27T13:52:36.665Z,29.98
2022-11-27T13:55:12.549Z,29.96
2022-11-27T13:57:53.661Z,29.86
2022-11-27T14:00:34.247Z,29.96
2022-11-27T14:03:06.865Z,29.99
2022-11-27T14:05:44.452Z,29.96
2022-11-27T14:08:21.022Z,30.04
2022-11-27T14:10:56.079Z,30.06
2022-11-27T14:13:36.776Z,30.14
2022-11-27T14:16:12.500Z,30.15
2022-11-27T14:18:43.440Z,30.16
2022-11-27T14:21:25.940Z,30.15
2022-11-27T14:23:56.650Z,30.12
2022-11-27T14:26:27.553Z,30.14
2022-11-27T14:28:58.308Z,30.16
2022-11-27T14:31:38.405Z,30.18
2022-11-27T14:34:15.560Z,30.18
2022-11-27T14:36:46.316Z,30.10
2022-11-27T14:39:31.914Z,30.14
2022-11-27T14:42:05.104Z,30.13
2022-11-27T14:44:35.417Z,30.14
2022-11-27T14:47:07.939Z,30.15
2022-11-27T14:49:38.164Z,30.16
2022-11-27T14:52:10.154Z,30.19
2022-11-27T14:54:41.876Z,30.17
2022-11-27T14:57:17.105Z,30.17
2022-11-27T14:59:47.115Z,30.21
2022-11-27T15:02:16.911Z,30.27
2022-11-27T15:04:48.177Z,30.23
2022-11-27T15:07:23.110Z,30.24
2022-11-27T15:09:55.138Z,30.26
2022-11-27T15:12:26.570Z,30.22
2022-11-27T15:15:11.160Z,30.25
2022-11-27T15:17:42.545Z,30.25
2022-11-27T15:20:20.222Z,30.27
2022-11-27T15:22:51.264Z,30.28
2022-11-27T15:25:32.340Z,30.23
2022-11-27T15:28:02.389Z,30.26
2022-11-27T15:30:33.057Z,30.29
2022-11-27T15:33:03.594Z,30.28
2022-11-27T15:35:36.298Z,30.26
2022-11-27T15:38:13.502Z,30.27
2022-11-27T15:40:44.355Z,30.27
2022-11-27T15:43:16.196Z,30.30
2022-11-27T15:45:46.981Z,30.24
2022-11-27T15:48:18.546Z,30.25
2022-11-27T15:50:51.618Z,30.25
2022-11-27T15:53:22.038Z,30.22
2022-11-27T15:55:52.437Z,30.18
2022-11-27T15:58:22.384Z,30.21
2022-11-27T16:00:52.275Z,30.17
2022-11-27T16:03:22.765Z,30.02
2022-11-27T16:05:53.904Z,29.97
2022-11-27T16:08:23.996Z,29.91
2022-11-27T16:10:53.868Z,29.88
2022-11-27T16:13:23.779Z,29.88
2022-11-27T16:15:53.618Z,29.84
2022-11-27T16:18:24.176Z,29.82
2022-11-27T16:20:54.040Z,29.81
2022-11-27T16:23:23.952Z,29.81
2022-11-27T16:25:53.916Z,29.87
2022-11-27T16:28:23.727Z,29.84
2022-11-27T16:30:56.254Z,29.84
2022-11-27T16:33:33.620Z,29.82
2022-11-27T16:36:11.687Z,29.80
2022-11-27T16:38:42.185Z,29.80
2022-11-27T16:41:15.548Z,29.78
2022-11-27T16:43:47.849Z,29.82
2022-11-27T16:46:24.808Z,29.80
2022-11-27T16:48:56.768Z,29.77
2022-11-27T16:51:27.978Z,29.78
2022-11-27T16:53:58.939Z,29.80
2022-11-27T16:56:30.045Z,29.79
2022-11-27T16:59:03.017Z,29.76
2022-11-27T17:01:38.375Z,29.80
2022-11-27T17:04:12.349Z,29.76
2022-11-27T17:06:42.785Z,29.81
2022-11-27T17:09:16.316Z,29.78
2022-11-27T17:11:47.939Z,29.78
2022-11-27T17:14:18.633Z,29.77
2022-11-27T17:16:50.568Z,29.80
2022-11-27T17:19:21.126Z,29.79
2022-11-27T17:21:51.196Z,29.75
2022-11-27T17:24:22.530Z,29.75
2022-11-27T17:26:53.668Z,29.75
2022-11-27T17:29:26.423Z,29.71
2022-11-27T17:31:56.575Z,29.76
2022-11-27T17:34:28.699Z,29.73
2022-11-27T17:36:59.946Z,29.75
2022-11-27T17:39:47.889Z,29.73
2022-11-27T17:42:22.471Z,29.72
2022-11-27T17:44:53.948Z,29.73
2022-11-27T17:47:24.046Z,29.72
2022-11-27T17:49:54.220Z,29.71
2022-11-27T17:52:24.020Z,29.74
2022-11-27T17:54:54.054Z,29.73
2022-11-27T17:57:24.275Z,29.74
2022-11-27T17:59:54.937Z,29.70
2022-11-27T18:02:43.245Z,29.72
2022-11-27T18:05:13.242Z,29.72
2022-11-27T18:10:28.579Z,29.72
2022-11-27T18:13:00.006Z,29.71
2022-11-27T18:15:30.013Z,29.71
2022-11-27T18:18:01.386Z,29.76
2022-11-27T18:20:31.818Z,29.72
2022-11-27T18:23:01.810Z,29.75
2022-11-27T18:25:31.587Z,29.74
2022-11-27T18:28:01.285Z,29.72
2022-11-27T18:30:31.153Z,29.71
2022-11-27T18:33:01.019Z,29.71
2022-11-27T18:35:30.645Z,29.71
2022-11-27T18:38:00.404Z,29.70
2022-11-27T18:40:30.488Z,29.69
2022-11-27T18:43:00.147Z,29.69
2022-11-27T18:45:33.264Z,29.69
2022-11-27T18:48:04.112Z,29.73
2022-11-27T18:50:34.249Z,29.71
2022-11-27T18:53:05.516Z,29.69
2022-11-27T18:55:36.005Z,29.68
2022-11-27T18:58:05.802Z,29.68
2022-11-27T19:00:38.794Z,29.67
2022-11-27T19:03:08.779Z,29.69
2022-11-27T19:05:38.773Z,29.68
2022-11-27T19:08:11.188Z,29.69
2022-11-27T19:10:41.192Z,29.67
2022-11-27T19:13:11.629Z,29.69
2022-11-27T19:15:42.583Z,29.68
2022-11-27T19:18:12.482Z,29.68
2022-11-27T19:20:42.406Z,29.68
2022-11-27T19:23:12.620Z,29.69
2022-11-27T19:25:42.961Z,29.68
2022-11-27T19:28:13.734Z,29.66
2022-11-27T19:30:44.884Z,29.69
2022-11-27T19:33:14.908Z,29.68
2022-11-27T19:35:44.945Z,29.66
2022-11-27T19:38:14.659Z,29.67
2022-11-27T19:40:44.723Z,29.67
2022-11-27T19:43:15.334Z,29.66
2022-11-27T19:45:45.463Z,29.66
2022-11-27T19:48:20.005Z,29.66
2022-11-27T19:50:54.007Z,29.68
2022-11-27T19:53:25.163Z,29.67
2022-11-27T19:55:57.069Z,29.68
2022-11-27T19:58:26.970Z,29.67
2022-11-27T20:00:57.149Z,29.66
2022-11-27T20:03:28.282Z,29.66
2022-11-27T20:06:05.567Z,29.65
2022-11-27T20:08:35.990Z,29.63
2022-11-27T20:11:07.512Z,29.67
2022-11-27T20:13:37.770Z,29.66
2022-11-27T20:16:11.461Z,29.66
2022-11-27T20:18:41.437Z,29.65
2022-11-27T20:21:13.272Z,29.66
2022-11-27T20:23:44.738Z,29.64
2022-11-27T20:26:32.777Z,29.66
2022-11-27T20:29:02.703Z,29.66
2022-11-27T20:31:36.531Z,29.66
2022-11-27T20:34:07.706Z,29.65
2022-11-27T20:36:42.237Z,29.65
2022-11-27T20:39:17.699Z,29.66
2022-11-27T20:41:51.694Z,29.66
2022-11-27T20:44:22.121Z,29.66
2022-11-27T20:46:52.374Z,29.66
2022-11-27T20:49:23.027Z,29.65
2022-11-27T20:51:52.988Z,29.67
2022-11-27T20:54:25.215Z,29.66
2022-11-27T20:56:55.361Z,29.66
2022-11-27T20:59:26.296Z,29.62
2022-11-27T21:01:56.239Z,29.63
2022-11-27T21:04:28.223Z,29.63
2022-11-27T21:06:59.270Z,29.65
2022-11-27T21:09:29.271Z,29.64
2022-11-27T21:12:02.408Z,29.63
2022-11-27T21:14:34.269Z,29.64
2022-11-27T21:17:05.379Z,29.65
2022-11-27T21:19:38.844Z,29.65
2022-11-27T21:22:09.253Z,29.63
2022-11-27T21:24:39.024Z,29.65
2022-11-27T21:27:08.875Z,29.65
2022-11-27T21:29:39.887Z,29.64
2022-11-27T21:32:10.360Z,29.63
2022-11-27T21:34:42.804Z,29.62
2022-11-27T21:37:13.150Z,29.62
2022-11-27T21:39:43.556Z,29.60
2022-11-27T21:42:13.870Z,29.59
2022-11-27T21:44:44.294Z,29.58
2022-11-27T21:47:14.170Z,29.60
2022-11-27T21:49:44.283Z,29.60
2022-11-27T22:32:35.524Z,29.15
2022-11-27T22:35:06.069Z,29.16
2022-11-27T22:37:35.911Z,29.19
2022-11-27T22:40:09.148Z,29.23
2022-11-27T22:42:39.733Z,29.28
2022-11-27T22:45:11.928Z,29.33
2022-11-27T22:47:43.600Z,29.39
2022-11-27T22:50:14.167Z,29.44
2022-11-27T22:52:45.130Z,29.48
2022-11-27T22:55:14.958Z,29.48
2022-11-27T22:57:45.909Z,29.47
2022-11-27T23:00:17.234Z,29.47
2022-11-27T23:02:48.553Z,29.44
2022-11-27T23:05:20.994Z,29.49
2022-11-27T23:07:50.945Z,29.46
2022-11-27T23:10:20.719Z,29.43
2022-11-27T23:12:50.564Z,29.50
2022-11-27T23:15:20.626Z,29.50
2022-11-27T23:17:51.018Z,29.51
2022-11-27T23:20:20.861Z,29.51
2022-11-27T23:22:52.827Z,29.51
2022-11-27T23:25:22.733Z,29.52
2022-11-27T23:27:52.467Z,29.52
2022-11-27T23:30:22.338Z,29.52
2022-11-27T23:32:51.989Z,29.53
2022-11-27T23:35:21.941Z,29.55
2022-11-27T23:37:51.664Z,29.51
2022-11-27T23:40:21.433Z,29.51
2022-11-27T23:42:51.258Z,29.52
2022-11-27T23:45:21.210Z,29.53
2022-11-27T23:47:52.667Z,29.50
2022-11-27T23:50:22.541Z,29.47
2022-11-27T23:52:52.306Z,29.52
2022-11-27T23:55:22.232Z,29.53
2022-11-27T23:57:52.598Z,29.51
